Time;durP1;ratioP1;P1;durP2;ratioP2;P2;SDS_P1;SDS_P2;PMS_P1;PMS_P2;Temp;Humidity;BMP_temperature;BMP_pressure;BME280_temperature;BME280_humidity;BME280_pressure;Samples;Min_cycle;Max_cycle;Signal;HPM_P1;HPM_P2
2022/08/10 00:01:30;;;;;;;5.30;3.95;;;;;;;15.12;100.00;102914.00;5023522;28;21546;-81
2022/08/10 00:03:55;;;;;;;4.95;3.72;;;;;;;15.11;100.00;102909.59;5039691;28;20716;-82
2022/08/10 00:06:21;;;;;;;5.43;4.13;;;;;;;15.12;100.00;102911.34;5025551;28;20102;-82
2022/08/10 00:08:47;;;;;;;6.35;3.63;;;;;;;15.12;100.00;102919.34;5034103;28;20043;-81
2022/08/10 00:11:13;;;;;;;5.00;3.50;;;;;;;15.12;100.00;102916.66;5033238;28;20120;-81
2022/08/10 00:13:38;;;;;;;5.50;4.05;;;;;;;15.12;100.00;102916.66;5022608;28;20029;-83
2022/08/10 00:16:04;;;;;;;4.85;3.95;;;;;;;15.11;100.00;102909.59;5036770;28;20098;-82
2022/08/10 00:18:30;;;;;;;4.80;3.75;;;;;;;15.10;100.00;102913.19;5038726;28;20063;-83
2022/08/10 00:20:58;;;;;;;6.65;4.20;;;;;;;15.07;100.00;102903.47;5035142;28;20056;-82
2022/08/10 00:23:24;;;;;;;5.60;4.18;;;;;;;15.09;100.00;102914.13;5039035;28;20551;-82
2022/08/10 00:25:49;;;;;;;5.90;4.13;;;;;;;15.05;100.00;102906.19;5022005;28;20042;-81
2022/08/10 00:28:15;;;;;;;7.45;4.50;;;;;;;15.04;100.00;102898.25;5038100;28;20052;-82
2022/08/10 00:30:40;;;;;;;6.40;4.18;;;;;;;15.05;100.00;102900.00;5025631;28;20096;-82
2022/08/10 00:33:09;;;;;;;6.45;4.28;;;;;;;15.01;100.00;102904.56;5035396;28;20029;-81
2022/08/10 00:35:34;;;;;;;7.50;4.90;;;;;;;14.94;100.00;102897.69;5035948;28;20032;-82
2022/08/10 00:38:00;;;;;;;6.80;4.50;;;;;;;14.85;100.00;102906.81;5040190;28;20025;-80
2022/08/10 00:40:25;;;;;;;5.70;4.47;;;;;;;14.77;100.00;102900.88;5038896;28;20032;-81
2022/08/10 00:42:51;;;;;;;6.55;4.65;;;;;;;14.70;100.00;102909.94;5019874;28;20036;-81
2022/08/10 00:45:16;;;;;;;6.63;4.63;;;;;;;14.57;100.00;102902.31;5030429;28;20077;-84
2022/08/10 00:47:44;;;;;;;7.65;4.85;;;;;;;14.51;100.00;102908.66;5021737;28;20028;-81
2022/08/10 00:50:10;;;;;;;6.45;4.55;;;;;;;14.48;100.00;102911.44;5038459;28;20034;-81
2022/08/10 00:52:37;;;;;;;7.53;4.70;;;;;;;14.42;100.00;102906.28;5040531;28;20033;-82
2022/08/10 00:55:04;;;;;;;6.93;4.90;;;;;;;14.36;100.00;102901.13;5024493;28;20055;-79
2022/08/10 00:57:31;;;;;;;6.03;4.38;;;;;;;14.33;100.00;102895.91;5042041;28;20041;-82
2022/08/10 00:59:57;;;;;;;6.45;4.53;;;;;;;14.31;100.00;102898.59;5024540;28;20037;-82
2022/08/10 01:02:22;;;;;;;6.93;4.53;;;;;;;14.32;100.00;102902.16;5051655;28;20042;-83
2022/08/10 01:04:48;;;;;;;8.57;4.88;;;;;;;14.34;100.00;102903.81;5053497;28;20438;-82
2022/08/10 01:07:32;;;;;;;9.95;4.97;;;;;;;14.38;100.00;102902.84;5049656;28;20033;-82
2022/08/10 01:10:18;;;;;;;7.03;4.93;;;;;;;14.44;100.00;102903.59;5042358;28;20041;-81
2022/08/10 01:13:00;;;;;;;6.63;4.50;;;;;;;14.49;100.00;102907.84;5039698;28;20091;-84
2022/08/10 01:15:37;;;;;;;6.65;4.57;;;;;;;14.55;100.00;102900.59;5025401;28;20037;-81
2022/08/10 01:18:22;;;;;;;9.27;5.10;;;;;;;14.58;100.00;102896.03;5025672;28;20033;-82
2022/08/10 01:21:10;;;;;;;6.78;4.47;;;;;;;14.61;100.00;102895.94;5039153;28;20597;-82
2022/08/10 01:23:48;;;;;;;6.22;4.22;;;;;;;14.60;100.00;102891.53;5042527;28;20419;-82
2022/08/10 01:26:32;;;;;;;7.85;4.65;;;;;;;14.60;100.00;102888.00;5040753;28;20187;-81
2022/08/10 01:29:26;;;;;;;7.38;4.88;;;;;;;14.59;100.00;102894.28;5036968;28;20039;-82
2022/08/10 01:31:53;;;;;;;6.40;4.78;;;;;;;14.58;100.00;102897.81;5036476;28;20123;-80
2022/08/10 01:34:22;;;;;;;7.72;4.65;;;;;;;14.57;100.00;102894.31;5021885;28;20024;-80
2022/08/10 01:36:50;;;;;;;6.55;4.60;;;;;;;14.57;100.00;102894.31;5021111;28;20032;-81
2022/08/10 01:39:22;;;;;;;6.10;4.25;;;;;;;14.57;100.00;102888.97;5008122;28;20491;-82
2022/08/10 01:41:50;;;;;;;7.70;4.78;;;;;;;14.56;100.00;102897.00;5019198;28;20041;-81
2022/08/10 01:44:22;;;;;;;6.53;4.28;;;;;;;14.56;100.00;102897.00;5018961;28;20040;-82
2022/08/10 01:46:50;;;;;;;7.43;4.90;;;;;;;14.53;100.00;102893.53;5040397;28;20132;-82
2022/08/10 01:49:17;;;;;;;6.72;4.78;;;;;;;14.52;100.00;102891.78;5022536;28;20057;-81
2022/08/10 01:51:50;;;;;;;7.07;4.75;;;;;;;14.51;100.00;102895.34;5024671;28;20033;-82
2022/08/10 01:54:19;;;;;;;6.50;4.50;;;;;;;14.51;100.00;102886.50;5043770;28;20043;-82
2022/08/10 01:56:47;;;;;;;7.03;4.65;;;;;;;14.52;100.00;102897.13;5024775;28;20068;-82
2022/08/10 01:59:34;;;;;;;7.50;5.15;;;;;;;14.52;100.00;102891.78;5002808;28;20029;-82
2022/08/10 02:02:03;;;;;;;6.18;4.47;;;;;;;14.54;100.00;102889.06;4990403;28;20447;-82
2022/08/10 02:04:30;;;;;;;7.18;4.47;;;;;;;14.51;100.00;102883.81;5000270;28;20034;-82
2022/08/10 02:06:57;;;;;;;8.05;4.82;;;;;;;14.51;100.00;102884.69;5004144;28;20182;-82
2022/08/10 02:09:29;;;;;;;8.95;5.47;;;;;;;14.52;100.00;102880.25;4991060;28;20511;-82
2022/08/10 02:11:59;;;;;;;7.15;4.80;;;;;;;14.55;100.00;102892.59;5002490;28;20029;-82
2022/08/10 02:14:31;;;;;;;8.60;4.97;;;;;;;14.55;100.00;102887.28;5019901;28;20740;-82
2022/08/10 02:16:57;;;;;;;7.32;5.10;;;;;;;14.58;100.00;102889.84;5001865;28;20147;-81
2022/08/10 02:19:24;;;;;;;7.88;5.10;;;;;;;14.62;100.00;102891.50;5006757;28;20040;-82
2022/08/10 02:21:51;;;;;;;9.57;5.35;;;;;;;14.63;100.00;102888.78;5002787;28;20587;-82
2022/08/10 02:24:17;;;;;;;8.85;5.88;;;;;;;14.66;100.00;102882.50;5023078;28;20433;-82
2022/08/10 02:26:43;;;;;;;10.00;5.60;;;;;;;14.70;100.00;102884.13;4988548;28;20129;-83
2022/08/10 02:29:12;;;;;;;9.15;5.70;;;;;;;14.72;100.00;102884.09;5023494;28;20088;-82
2022/08/10 02:31:40;;;;;;;9.68;5.93;;;;;;;14.73;100.00;102891.16;5017638;28;20516;-82
2022/08/10 02:34:07;;;;;;;11.00;6.10;;;;;;;14.73;100.00;102892.06;5019971;28;20477;-82
2022/08/10 02:36:34;;;;;;;8.90;5.82;;;;;;;14.73;100.00;102883.16;5021959;28;20127;-82
2022/08/10 02:39:02;;;;;;;11.00;5.85;;;;;;;14.72;100.00;102884.97;5021495;28;20191;-82
2022/08/10 02:41:53;;;;;;;11.23;6.28;;;;;;;14.73;100.00;102884.06;5017594;28;20037;-82
2022/08/10 02:44:26;;;;;;;11.40;5.97;;;;;;;14.72;100.00;102882.31;5014905;28;20116;-82
2022/08/10 02:47:03;;;;;;;11.75;5.72;;;;;;;14.72;100.00;102882.31;5003066;28;20037;-83
2022/08/10 02:49:54;;;;;;;9.27;5.32;;;;;;;14.70;100.00;102880.63;4970530;28;20120;-82
2022/08/10 02:52:24;;;;;;;11.00;5.70;;;;;;;14.66;100.00;102882.50;5021462;28;20429;-82
2022/08/10 02:54:59;;;;;;;10.65;6.70;;;;;;;14.65;100.00;102880.72;5000700;28;20025;-82
2022/08/10 02:57:28;;;;;;;13.68;5.97;;;;;;;14.65;100.00;102878.06;5002514;28;20073;-82
2022/08/10 02:59:59;;;;;;;10.18;6.00;;;;;;;14.67;100.00;102879.75;4990571;28;20042;-82
2022/08/10 03:02:37;;;;;;;12.40;6.40;;;;;;;14.70;100.00;102868.13;5004528;28;20041;-82
2022/08/10 03:05:06;;;;;;;11.10;6.40;;;;;;;14.72;100.00;102871.66;5008804;28;20037;-82
2022/08/10 03:07:35;;;;;;;10.73;6.50;;;;;;;14.75;100.00;102874.25;5010597;28;20033;-82
2022/08/10 03:10:02;;;;;;;9.10;6.35;;;;;;;14.76;100.00;102870.66;5000007;28;20122;-82
2022/08/10 03:12:29;;;;;;;10.32;5.88;;;;;;;14.74;100.00;102871.63;5001213;28;20042;-82
2022/08/10 03:14:55;;;;;;;9.95;5.93;;;;;;;14.70;100.00;102867.28;4984876;28;20033;-81
2022/08/10 03:17:21;;;;;;;9.18;5.70;;;;;;;14.67;100.00;102869.09;5012970;28;20290;-81
2022/08/10 03:19:47;;;;;;;10.40;5.63;;;;;;;14.67;100.00;102876.25;5008108;28;20037;-80
2022/08/10 03:22:14;;;;;;;11.13;6.22;;;;;;;14.63;100.00;102866.59;4998090;28;20041;-82
2022/08/10 03:24:42;;;;;;;10.50;5.68;;;;;;;14.56;100.00;102863.25;4998353;28;20034;-82
2022/08/10 03:27:08;;;;;;;9.35;5.85;;;;;;;14.50;100.00;102866.94;4978085;28;20400;-80
2022/08/10 03:29:34;;;;;;;8.65;5.72;;;;;;;14.46;100.00;102864.44;4995956;28;20585;-81
2022/08/10 03:32:01;;;;;;;8.00;5.68;;;;;;;14.39;100.00;102853.94;4991613;28;20038;-81
2022/08/10 03:34:27;;;;;;;8.38;5.45;;;;;;;14.35;100.00;102857.63;5018187;28;20492;-81
2022/08/10 03:36:52;;;;;;;8.52;5.30;;;;;;;14.29;100.00;102855.16;4997370;28;20033;-83
2022/08/10 03:39:18;;;;;;;9.73;5.30;;;;;;;14.28;100.00;102857.84;4966288;28;21384;-82
2022/08/10 03:41:47;;;;;;;8.98;5.40;;;;;;;14.18;100.00;102854.59;5012175;28;20036;-82
2022/08/10 03:44:18;;;;;;;9.30;5.22;;;;;;;14.15;100.00;102866.19;4984109;28;20639;-81
2022/08/10 03:46:44;;;;;;;8.05;4.95;;;;;;;14.10;100.00;102857.44;4995867;28;20025;-82
2022/08/10 03:49:11;;;;;;;7.78;4.65;;;;;;;14.05;100.00;102868.25;4988612;28;20039;-82
2022/08/10 03:51:37;;;;;;;7.13;4.65;;;;;;;14.01;100.00;102871.03;4997918;28;20034;-82
2022/08/10 03:54:03;;;;;;;8.52;5.05;;;;;;;13.94;100.00;102868.53;4991450;28;20083;-82
2022/08/10 03:56:29;;;;;;;9.20;5.50;;;;;;;13.89;100.00;102866.94;4988095;28;20746;-82
2022/08/10 03:58:56;;;;;;;8.68;5.43;;;;;;;13.83;100.00;102863.50;5015651;28;20049;-83
2022/08/10 04:01:25;;;;;;;10.32;4.97;;;;;;;13.79;100.00;102867.16;4992665;28;21012;-82
2022/08/10 04:03:51;;;;;;;7.85;4.97;;;;;;;13.75;100.00;102868.19;5015474;28;20135;-82
2022/08/10 04:06:19;;;;;;;7.40;5.03;;;;;;;13.71;100.00;102872.72;5027888;28;20473;-82
2022/08/10 04:08:44;;;;;;;7.50;4.97;;;;;;;13.67;100.00;102867.50;5001885;28;20037;-83
2022/08/10 04:11:10;;;;;;;9.40;5.82;;;;;;;13.60;100.00;102866.78;5003960;28;20033;-83
2022/08/10 04:13:36;;;;;;;7.80;5.03;;;;;;;13.58;100.00;102868.63;4983819;28;20061;-83
2022/08/10 04:16:03;;;;;;;9.00;5.07;;;;;;;13.53;100.00;102858.09;5018604;28;20037;-83
2022/08/10 04:18:29;;;;;;;8.32;5.32;;;;;;;13.51;100.00;102859.91;5017580;28;20036;-82
2022/08/10 04:21:00;;;;;;;7.95;5.13;;;;;;;13.46;100.00;102860.94;5021130;28;20476;-83
2022/08/10 04:23:28;;;;;;;7.22;4.70;;;;;;;13.44;100.00;102861.84;5016596;28;20028;-82
2022/08/10 04:25:54;;;;;;;9.45;5.55;;;;;;;13.43;100.00;102862.75;5004726;28;20037;-82
2022/08/10 04:28:20;;;;;;;9.77;5.63;;;;;;;13.45;100.00;102854.72;4997140;28;20131;-82
2022/08/10 04:30:47;;;;;;;8.38;5.50;;;;;;;13.44;100.00;102858.28;5017078;28;20029;-82
2022/08/10 04:33:14;;;;;;;13.25;6.15;;;;;;;13.43;100.00;102856.53;5001165;28;20132;-82
2022/08/10 04:35:40;;;;;;;12.68;6.30;;;;;;;13.44;100.00;102850.31;5004628;28;20028;-82
2022/08/10 04:38:07;;;;;;;11.02;5.95;;;;;;;13.47;100.00;102860.03;5017873;28;20047;-82
2022/08/10 04:40:32;;;;;;;12.65;6.63;;;;;;;13.50;100.00;102852.84;5001245;28;20041;-81
2022/08/10 04:43:00;;;;;;;11.82;6.40;;;;;;;13.55;100.00;102850.94;5003749;28;20489;-81
2022/08/10 04:45:26;;;;;;;10.88;6.15;;;;;;;13.57;100.00;102859.75;4996798;28;20037;-82
2022/08/10 04:47:54;;;;;;;11.85;6.13;;;;;;;13.58;100.00;102855.31;4997866;28;20037;-82
2022/08/10 04:50:20;;;;;;;10.32;6.53;;;;;;;13.61;100.00;102855.22;5001242;28;20033;-81
2022/08/10 04:52:45;;;;;;;10.23;5.70;;;;;;;13.64;100.00;102857.81;5023897;28;20037;-80
2022/08/10 04:55:11;;;;;;;11.35;6.70;;;;;;;13.65;100.00;102856.91;5017233;28;20037;-81
2022/08/10 04:57:36;;;;;;;11.10;6.40;;;;;;;13.67;100.00;102859.53;5004684;28;20051;-81
2022/08/10 05:00:03;;;;;;;10.57;6.53;;;;;;;13.67;100.00;102849.75;5033249;28;20106;-81
2022/08/10 05:02:29;;;;;;;9.95;6.35;;;;;;;13.70;100.00;102854.09;5024213;28;20040;-81
2022/08/10 05:04:54;;;;;;;12.27;6.00;;;;;;;13.69;100.00;102853.22;5032010;28;20079;-82
2022/08/10 05:07:20;;;;;;;12.40;6.63;;;;;;;13.74;100.00;102855.78;5018320;28;20025;-82
2022/08/10 05:09:47;;;;;;;10.70;6.30;;;;;;;13.79;100.00;102855.66;5016621;28;20037;-81
2022/08/10 05:12:13;;;;;;;11.35;6.13;;;;;;;13.80;100.00;102854.75;5022424;28;20487;-82
2022/08/10 05:14:38;;;;;;;11.43;6.63;;;;;;;13.83;100.00;102851.97;5021682;28;20021;-82
2022/08/10 05:17:04;;;;;;;8.60;5.72;;;;;;;13.89;100.00;102857.13;5018832;28;20214;-83
2022/08/10 05:19:29;;;;;;;13.02;6.90;;;;;;;13.94;100.00;102849.91;5031262;28;20626;-81
2022/08/10 05:21:55;;;;;;;11.20;6.70;;;;;;;14.04;100.00;102852.28;5028727;28;20032;-81
2022/08/10 05:24:20;;;;;;;12.05;7.13;;;;;;;14.15;100.00;102866.19;5033279;28;20059;-82
2022/08/10 05:26:46;;;;;;;11.65;7.40;;;;;;;14.24;100.00;102854.41;5032047;28;20033;-81
2022/08/10 05:29:12;;;;;;;11.85;6.60;;;;;;;14.32;100.00;102851.53;5025052;28;20060;-81
2022/08/10 05:31:37;;;;;;;13.52;6.68;;;;;;;14.37;100.00;102860.25;5012645;28;20569;-71
2022/08/10 05:34:03;;;;;;;14.30;7.40;;;;;;;14.42;100.00;102854.78;5018898;28;20059;-70
2022/08/10 05:36:28;;;;;;;11.10;6.72;;;;;;;14.55;100.00;102863.28;5028330;28;20033;-69
2022/08/10 05:38:54;;;;;;;13.02;7.50;;;;;;;14.69;100.00;102860.19;5022726;28;20156;-71
2022/08/10 05:41:20;;;;;;;12.68;6.97;;;;;;;14.82;100.00;102860.72;5030523;28;20042;-70
2022/08/10 05:43:46;;;;;;;14.27;7.97;;;;;;;14.97;100.00;102848.72;5021477;28;20476;-70
2022/08/10 05:46:12;;;;;;;14.00;7.53;;;;;;;15.11;100.00;102850.91;5032630;28;20036;-70
2022/08/10 05:48:38;;;;;;;13.80;7.20;;;;;;;15.26;100.00;102852.19;5035540;28;20447;-70
2022/08/10 05:51:04;;;;;;;14.10;7.13;;;;;;;15.38;100.00;102848.25;5035474;28;20052;-70
2022/08/10 05:53:32;;;;;;;13.52;7.40;;;;;;;15.50;100.00;102857.63;5024681;28;20033;-70
2022/08/10 05:55:58;;;;;;;11.38;6.90;;;;;;;15.60;100.00;102854.56;5020616;28;20457;-71
2022/08/10 05:58:24;;;;;;;11.02;7.10;;;;;;;15.76;100.00;102854.06;5001701;28;20046;-71
2022/08/10 06:00:54;;;;;;;11.10;6.85;;;;;;;16.01;100.00;102855.84;4989670;28;20041;-70
2022/08/10 06:03:26;;;;;;;9.95;6.63;;;;;;;16.28;100.00;102858.44;5009822;28;21322;-70
2022/08/10 06:05:54;;;;;;;10.25;6.35;;;;;;;16.47;100.00;102849.72;4992130;28;20451;-71
2022/08/10 06:08:23;;;;;;;10.23;6.68;;;;;;;16.66;100.00;102849.84;5007858;28;20033;-70
2022/08/10 06:10:50;;;;;;;10.57;6.13;;;;;;;16.88;100.00;102860.56;5008656;28;20042;-70
2022/08/10 06:16:09;;;;;;;7.95;5.47;;;;;;;17.29;100.00;102859.84;5012119;28;21489;-70
2022/08/10 06:18:35;;;;;;;7.40;5.25;;;;;;;17.45;100.00;102860.06;5011070;28;20032;-71
2022/08/10 06:21:02;;;;;;;9.32;5.40;;;;;;;17.60;100.00;102858.50;5008343;28;20036;-70
2022/08/10 06:23:28;;;;;;;7.60;4.82;;;;;;;17.77;100.00;102865.81;5008131;28;20026;-71
2022/08/10 06:25:54;;;;;;;8.32;4.85;;;;;;;17.94;100.00;102861.53;5010731;28;20037;-71
2022/08/10 06:28:20;;;;;;;5.38;4.10;;;;;;;18.05;100.00;102866.44;5007474;28;20114;-70
2022/08/10 06:30:46;;;;;;;5.43;4.20;;;;;;;18.21;100.00;102863.03;5012461;28;20613;-71
2022/08/10 06:33:12;;;;;;;7.18;4.82;;;;;;;18.30;100.00;102868.84;4992950;28;20028;-71
2022/08/10 06:35:38;;;;;;;6.10;4.25;;;;;;;18.46;100.00;102862.75;5014408;28;20038;-72
2022/08/10 06:38:05;;;;;;;5.65;4.00;;;;;;;18.59;100.00;102865.75;5010896;28;20037;-71
2022/08/10 06:40:43;;;;;;;6.82;4.00;;;;;;;18.78;100.00;102863.03;5013420;28;20506;-70
2022/08/10 06:43:09;;;;;;;6.03;3.70;;;;;;;18.90;100.00;102861.56;5017351;28;20057;-70
2022/08/10 06:45:43;;;;;;;4.57;3.42;;;;;;;19.06;100.00;102860.84;5016710;28;20048;-70
2022/08/10 06:48:33;;;;;;;4.68;3.55;;;;;;;19.17;100.00;102863.00;5017053;28;21568;-71
2022/08/10 06:51:02;;;;;;;4.65;3.33;;;;;;;19.29;100.00;102867.75;5016228;28;20045;-71
2022/08/10 06:53:33;;;;;;;3.90;3.45;;;;;;;19.45;100.00;102864.28;5016423;28;20054;-71
2022/08/10 06:56:03;;;;;;;5.03;3.08;;;;;;;19.54;100.00;102862.00;5015744;28;20030;-70
2022/08/10 06:58:34;;;;;;;4.60;3.00;;;;;;;19.71;100.00;102862.06;5013279;28;20037;-70
2022/08/10 07:01:03;;;;;;;6.05;3.17;;;;;;;19.79;100.00;102859.81;4993849;28;20280;-71
2022/08/10 07:03:34;;;;;;;4.45;2.97;;;;;;;19.90;100.00;102853.88;4993911;28;20124;-70
2022/08/10 07:06:00;;;;;;;3.65;2.83;;;;;;;20.04;100.00;102859.41;4991623;28;20025;-71
2022/08/10 07:08:28;;;;;;;3.92;2.80;;;;;;;20.14;100.00;102857.09;4994683;28;20457;-71
2022/08/10 07:10:54;;;;;;;6.22;2.80;;;;;;;20.22;100.00;102857.53;4989758;28;20059;-72
2022/08/10 07:13:21;;;;;;;3.22;2.92;;;;;;;20.34;100.00;102857.81;5013976;28;20255;-71
2022/08/10 07:15:48;;;;;;;4.75;3.20;;;;;;;20.43;100.00;102867.19;5013965;28;20437;-72
2022/08/10 07:18:14;;;;;;;3.53;2.78;;;;;;;20.49;100.00;102854.25;4986534;28;20042;-71
2022/08/10 07:20:42;;;;;;;3.75;2.65;;;;;;;20.60;100.00;102855.50;4986884;28;20033;-70
2022/08/10 07:23:10;;;;;;;4.13;3.20;;;;;;;20.70;100.00;102850.47;4984789;28;20246;-69
2022/08/10 07:25:37;;;;;;;3.25;2.80;;;;;;;20.84;100.00;102846.97;5006869;28;20630;-70
2022/08/10 07:28:03;;;;;;;3.67;2.72;;;;;;;20.93;100.00;102851.84;5005767;28;20034;-70
2022/08/10 07:30:32;;;;;;;3.95;2.92;;;;;;;20.92;100.00;102855.47;5007766;28;20029;-70
2022/08/10 07:33:00;;;;;;;2.90;2.58;;;;;;;20.97;100.00;102853.38;5013811;28;20087;-72
2022/08/10 07:35:26;;;;;;;4.13;2.92;;;;;;;21.03;100.00;102849.50;5016247;28;20039;-73
2022/08/10 07:37:53;;;;;;;5.22;3.00;;;;;;;21.03;100.00;102863.81;5008186;28;20120;-73
2022/08/10 07:40:20;;;;;;;4.18;2.88;;;;;;;21.11;100.00;102857.97;5028744;28;21396;-73
2022/08/10 07:42:52;;;;;;;3.22;2.75;;;;;;;21.24;100.00;102858.13;5009101;28;20148;-71
2022/08/10 07:45:18;;;;;;;;;;;;;;;21.32;96.92;102863.06;5005780;28;21368;-72
2022/08/10 07:48:01;;;;;;;3.38;2.53;;;;;;;21.39;97.88;102864.41;5009002;28;20642;-72
2022/08/10 07:50:28;;;;;;;3.45;2.42;;;;;;;21.39;99.07;102858.16;4998447;28;20042;-73
2022/08/10 07:52:57;;;;;;;3.67;2.60;;;;;;;21.42;98.67;102863.38;4993324;28;20030;-82
2022/08/10 07:55:22;;;;;;;3.08;2.78;;;;;;;21.55;98.14;102858.97;4992354;28;20034;-88
2022/08/10 07:57:50;;;;;;;3.22;2.42;;;;;;;21.60;97.75;102863.19;5013348;28;20045;-81
2022/08/10 08:00:16;;;;;;;6.10;2.53;;;;;;;21.69;97.66;102865.38;5002478;28;20792;-82
2022/08/10 08:02:47;;;;;;;4.28;2.60;;;;;;;21.79;97.12;102866.53;4991267;28;20038;-82
2022/08/10 08:05:13;;;;;;;2.65;2.45;;;;;;;21.88;96.33;102864.22;5018737;28;20037;-82
2022/08/10 08:07:40;;;;;;;3.22;2.50;;;;;;;21.89;94.88;102865.97;5002459;28;20040;-81
2022/08/10 08:10:07;;;;;;;3.97;2.05;;;;;;;22.00;95.17;102871.56;5013600;28;20129;-81
2022/08/10 08:12:34;;;;;;;3.03;2.38;;;;;;;22.14;94.11;102869.81;5009334;28;20076;-80
2022/08/10 08:15:01;;;;;;;3.25;2.17;;;;;;;22.22;93.27;102871.06;5007921;28;20640;-81
2022/08/10 08:17:29;;;;;;;4.45;2.10;;;;;;;22.35;93.41;102862.19;4997301;28;20436;-81
2022/08/10 08:19:56;;;;;;;2.85;2.00;;;;;;;22.50;92.36;102857.66;5008225;28;20155;-80
2022/08/10 08:22:22;;;;;;;2.42;2.20;;;;;;;22.63;90.69;102858.63;4983849;28;20029;-79
2022/08/10 08:24:49;;;;;;;2.40;2.00;;;;;;;22.70;89.46;102858.22;4996903;28;20048;-83
2022/08/10 08:27:18;;;;;;;2.20;2.00;;;;;;;22.73;89.48;102860.69;5012997;28;20029;-85
2022/08/10 08:29:45;;;;;;;2.47;2.17;;;;;;;22.85;89.27;102859.00;5015733;28;20503;-89
2022/08/10 08:32:12;;;;;;;3.22;2.17;;;;;;;22.92;86.99;102861.22;4982170;28;20033;-89
2022/08/10 08:34:40;;;;;;;2.00;1.77;;;;;;;22.95;87.94;102852.03;4997472;28;20025;-89
2022/08/10 08:37:10;;;;;;;2.13;1.90;;;;;;;23.09;86.23;102851.09;5005701;28;20034;-89
2022/08/10 08:39:39;;;;;;;2.42;1.95;;;;;;;23.20;86.73;102855.78;5023976;28;20049;-90
2022/08/10 08:42:27;;;;;;;2.42;2.08;;;;;;;23.15;80.49;102856.09;5026495;28;20028;-96
2022/08/10 08:45:28;;;;;;;2.33;1.90;;;;;;;23.13;83.24;102852.63;4990580;28;20116;-78
2022/08/10 08:48:18;;;;;;;2.40;2.20;;;;;;;23.27;83.37;102843.56;5014673;28;20091;-76
2022/08/10 08:51:10;;;;;;;4.45;2.28;;;;;;;23.41;83.39;102853.47;5011716;28;20034;-76
2022/08/10 08:53:54;;;;;;;2.90;2.40;;;;;;;23.58;83.45;102843.31;4972764;28;20049;-76
2022/08/10 08:56:27;;;;;;;2.80;2.00;;;;;;;23.69;83.86;102848.84;5016352;28;20033;-76
2022/08/10 08:58:58;;;;;;;;;;;;;;;23.84;81.28;102851.44;5028938;28;20044;-76
2022/08/10 09:01:48;;;;;;;2.40;2.20;;;;;;;23.93;81.45;102848.09;5036013;28;19920;-76
2022/08/10 09:04:32;;;;;;;4.15;2.13;;;;;;;23.92;81.60;102849.06;5032206;28;20029;-76
2022/08/10 09:07:21;;;;;;;2.17;1.98;;;;;;;24.02;84.09;102851.94;5040826;28;21441;-76
2022/08/10 09:10:11;;;;;;;3.25;2.00;;;;;;;24.19;81.99;102850.75;5036545;28;20029;-75
2022/08/10 09:12:53;;;;;;;2.10;1.90;;;;;;;24.38;80.37;102847.59;4991981;28;21376;-76
2022/08/10 09:15:31;;;;;;;4.15;1.85;;;;;;;24.45;81.44;102837.16;5010595;28;20037;-82
2022/08/10 09:18:07;;;;;;;2.03;1.75;;;;;;;24.53;80.63;102842.88;5039664;28;20036;-89
2022/08/10 09:20:41;;;;;;;2.30;1.85;;;;;;;24.67;78.75;102841.84;5044365;28;20048;-89
2022/08/10 09:23:25;;;;;;;4.03;1.90;;;;;;;24.67;79.76;102843.69;5019545;28;20052;-89
2022/08/10 09:25:53;;;;;;;2.10;1.90;;;;;;;24.59;80.97;102836.16;5040549;28;20041;-91
2022/08/10 09:28:23;;;;;;;3.53;2.00;;;;;;;24.54;81.31;102832.94;5021451;28;20024;-81
2022/08/10 09:31:09;;;;;;;2.33;1.98;;;;;;;24.50;78.53;102832.28;5042731;28;20031;-81
2022/08/10 09:33:54;;;;;;;2.80;1.88;;;;;;;24.65;79.94;102830.28;5022943;28;20670;-80
2022/08/10 09:36:49;;;;;;;3.05;2.00;;;;;;;24.85;80.04;102833.38;5036332;28;20128;-80
2022/08/10 09:39:22;;;;;;;2.10;1.90;;;;;;;24.99;80.87;102824.19;5024071;28;20090;-80
2022/08/10 09:41:57;;;;;;;3.83;2.05;;;;;;;24.95;79.96;102818.13;5043613;28;20049;-80
2022/08/10 09:44:30;;;;;;;2.45;2.03;;;;;;;24.88;78.59;102819.59;5030268;28;20065;-80
2022/08/10 09:47:15;;;;;;;1.88;1.60;;;;;;;24.97;79.81;102822.56;5040354;28;20132;-77
2022/08/10 09:49:43;;;;;;;2.38;1.73;;;;;;;25.03;77.99;102817.56;5020944;28;20514;-79
2022/08/10 09:52:24;;;;;;;2.33;1.70;;;;;;;25.20;74.93;102821.66;5020244;28;20029;-77
2022/08/10 09:55:27;;;;;;;2.55;1.65;;;;;;;25.32;71.71;102819.84;5030517;28;20036;-78
2022/08/10 09:58:05;;;;;;;2.17;1.70;;;;;;;25.37;73.11;102814.06;5019537;28;21020;-78
2022/08/10 10:00:37;;;;;;;4.35;1.75;;;;;;;25.36;72.25;102807.78;5002978;28;20040;-78
2022/08/10 10:03:10;;;;;;;1.75;1.52;;;;;;;25.31;71.30;102801.88;4999129;28;20060;-78
2022/08/10 10:06:05;;;;;;;2.40;1.80;;;;;;;25.32;70.15;102798.16;5004870;28;20042;-78
2022/08/10 10:08:42;;;;;;;1.90;1.70;;;;;;;25.23;70.92;102797.03;5015152;28;20075;-78
2022/08/10 10:11:08;;;;;;;2.05;1.80;;;;;;;25.09;70.55;102795.41;5024268;28;20037;-79
2022/08/10 10:13:45;;;;;;;3.67;1.75;;;;;;;25.04;68.73;102792.19;5027347;28;20052;-78
2022/08/10 10:16:15;;;;;;;2.83;2.00;;;;;;;24.97;70.00;102796.34;5025038;28;20034;-78
2022/08/10 10:18:46;;;;;;;1.80;1.65;;;;;;;24.99;70.06;102793.53;5026746;28;20546;-78
2022/08/10 10:21:31;;;;;;;3.13;1.88;;;;;;;25.08;67.92;102793.69;5008153;28;20383;-78
2022/08/10 10:24:41;;;;;;;2.17;1.65;;;;;;;25.12;68.57;102785.31;5005470;28;20036;-78
2022/08/10 10:27:33;;;;;;;1.67;1.50;;;;;;;25.13;67.96;102787.03;4981552;28;20053;-79
2022/08/10 10:30:04;;;;;;;1.60;1.50;;;;;;;25.18;69.38;102768.56;5008458;28;20774;-78
2022/08/10 10:32:44;;;;;;;2.77;1.80;;;;;;;25.27;68.58;102775.97;4992740;28;20084;-77
2022/08/10 10:35:12;;;;;;;1.88;1.70;;;;;;;25.35;68.68;102773.53;4992030;28;20548;-77
2022/08/10 10:37:39;;;;;;;1.65;1.55;;;;;;;25.36;68.57;102777.09;5004969;28;20466;-77
2022/08/10 10:40:08;;;;;;;1.60;1.50;;;;;;;25.19;68.20;102770.31;5008870;28;20286;-78
2022/08/10 10:42:42;;;;;;;2.75;1.77;;;;;;;25.07;67.66;102767.56;5027575;28;20041;-78
2022/08/10 10:45:18;;;;;;;1.50;1.40;;;;;;;25.04;68.44;102769.63;5016561;28;20120;-78
2022/08/10 10:48:13;;;;;;;2.38;2.00;;;;;;;25.06;68.60;102760.41;5022265;28;20040;-77
2022/08/10 10:50:57;;;;;;;2.25;1.65;;;;;;;25.22;67.48;102767.38;5026552;28;20522;-78
2022/08/10 10:53:28;;;;;;;2.03;1.50;;;;;;;25.23;68.04;102760.97;5018954;28;20037;-79
2022/08/10 10:56:10;;;;;;;1.50;1.40;;;;;;;25.16;67.11;102760.56;4988940;28;20060;-80
2022/08/10 10:58:41;;;;;;;1.63;1.25;;;;;;;25.16;66.80;102757.00;5021763;28;20505;-79
2022/08/10 11:01:13;;;;;;;1.90;1.57;;;;;;;25.05;67.43;102750.56;5003393;28;20033;-79
2022/08/10 11:03:47;;;;;;;1.67;1.40;;;;;;;25.00;67.90;102752.75;5018923;28;20065;-79
2022/08/10 11:06:47;;;;;;;1.98;1.50;;;;;;;24.90;66.65;102757.19;5011411;28;20403;-79
2022/08/10 11:09:23;;;;;;;3.80;1.50;;;;;;;24.92;67.41;102755.22;5018474;28;20044;-80
2022/08/10 11:11:54;;;;;;;3.00;1.80;;;;;;;24.99;67.69;102748.34;5007467;28;20079;-80
2022/08/10 11:14:47;;;;;;;1.45;1.35;;;;;;;25.01;66.63;102751.78;5018822;28;20530;-81
2022/08/10 11:17:34;;;;;;;1.67;1.50;;;;;;;24.93;66.28;102748.81;5023343;28;20041;-80
2022/08/10 11:20:10;;;;;;;1.40;1.30;;;;;;;24.86;67.27;102750.25;5009487;28;20045;-77
2022/08/10 11:22:39;;;;;;;1.10;1.05;;;;;;;24.88;67.73;102748.31;5004405;28;20029;-76
2022/08/10 11:25:14;;;;;;;2.25;1.55;;;;;;;24.89;65.78;102739.22;5000824;28;20069;-76
2022/08/10 11:27:51;;;;;;;1.50;1.30;;;;;;;24.86;64.38;102734.88;5017384;28;20511;-78
2022/08/10 11:30:20;;;;;;;1.40;1.30;;;;;;;24.82;65.76;102738.81;5018476;28;21447;-77
2022/08/10 11:33:06;;;;;;;1.95;1.40;;;;;;;24.86;65.34;102742.13;5003855;28;20175;-76
2022/08/10 11:35:43;;;;;;;2.63;1.33;;;;;;;25.03;64.92;102741.69;5002007;28;20042;-75
2022/08/10 11:38:25;;;;;;;1.95;1.45;;;;;;;25.14;65.00;102731.84;5019775;28;20025;-76
2022/08/10 11:41:06;;;;;;;1.30;1.20;;;;;;;25.11;63.70;102723.97;4999462;28;20060;-76